sensor_id;sensor_type;location;lat;lon;timestamp;P1;P2;P0
49343;PMS5003;35210;41.606;-87.602;2023-07-20T00:00:09;3.20;3.20;2.20
49343;PMS5003;35210;41.606;-87.602;2023-07-20T00:02:39;6.00;5.40;3.40
49343;PMS5003;35210;41.606;-87.602;2023-07-20T00:05:07;5.80;5.80;4.00
49343;PMS5003;35210;41.606;-87.602;2023-07-20T00:07:35;5.20;5.00;3.60
49343;PMS5003;35210;41.606;-87.602;2023-07-20T00:10:04;7.00;7.00;4.80
49343;PMS5003;35210;41.606;-87.602;2023-07-20T00:12:33;4.00;4.00;2.60
49343;PMS5003;35210;41.606;-87.602;2023-07-20T00:15:04;7.80;6.80;3.80
49343;PMS5003;35210;41.606;-87.602;2023-07-20T00:17:32;6.00;6.00;4.40
49343;PMS5003;35210;41.606;-87.602;2023-07-20T00:20:02;6.20;5.60;4.00
49343;PMS5003;35210;41.606;-87.602;2023-07-20T00:22:32;6.00;6.00;4.20
49343;PMS5003;35210;41.606;-87.602;2023-07-20T00:25:01;6.00;6.00;4.00
49343;PMS5003;35210;41.606;-87.602;2023-07-20T00:27:30;6.20;5.00;3.80
49343;PMS5003;35210;41.606;-87.602;2023-07-20T00:29:58;8.80;7.80;5.00
49343;PMS5003;35210;41.606;-87.602;2023-07-20T00:32:27;6.00;6.00;5.00
49343;PMS5003;35210;41.606;-87.602;2023-07-20T00:34:56;6.40;6.40;5.20
49343;PMS5003;35210;41.606;-87.602;2023-07-20T00:37:24;8.00;6.20;4.80
49343;PMS5003;35210;41.606;-87.602;2023-07-20T00:39:53;6.40;6.40;5.60
49343;PMS5003;35210;41.606;-87.602;2023-07-20T00:42:21;8.00;6.20;4.20
49343;PMS5003;35210;41.606;-87.602;2023-07-20T00:44:49;5.40;5.20;4.00
49343;PMS5003;35210;41.606;-87.602;2023-07-20T00:47:17;6.80;6.80;5.00
49343;PMS5003;35210;41.606;-87.602;2023-07-20T00:49:48;9.00;8.00;5.20
49343;PMS5003;35210;41.606;-87.602;2023-07-20T00:52:20;5.60;5.60;4.60
49343;PMS5003;35210;41.606;-87.602;2023-07-20T00:54:50;9.80;9.00;6.00
49343;PMS5003;35210;41.606;-87.602;2023-07-20T00:57:23;5.20;5.20;4.40
49343;PMS5003;35210;41.606;-87.602;2023-07-20T00:59:52;5.80;5.00;3.60
49343;PMS5003;35210;41.606;-87.602;2023-07-20T01:02:21;7.20;7.00;5.00
49343;PMS5003;35210;41.606;-87.602;2023-07-20T01:04:51;6.20;6.20;4.20
49343;PMS5003;35210;41.606;-87.602;2023-07-20T01:07:22;6.00;6.00;5.00
49343;PMS5003;35210;41.606;-87.602;2023-07-20T01:10:03;6.20;6.00;4.00
49343;PMS5003;35210;41.606;-87.602;2023-07-20T01:12:40;8.20;7.40;5.20
49343;PMS5003;35210;41.606;-87.602;2023-07-20T01:15:10;6.40;6.40;4.60
49343;PMS5003;35210;41.606;-87.602;2023-07-20T01:17:38;7.00;6.80;5.00
49343;PMS5003;35210;41.606;-87.602;2023-07-20T01:20:10;8.00;6.60;5.60
49343;PMS5003;35210;41.606;-87.602;2023-07-20T01:22:52;5.40;5.40;3.40
49343;PMS5003;35210;41.606;-87.602;2023-07-20T01:25:57;5.00;5.00;4.00
49343;PMS5003;35210;41.606;-87.602;2023-07-20T01:28:48;7.60;7.60;5.60
49343;PMS5003;35210;41.606;-87.602;2023-07-20T01:31:35;8.20;6.60;4.00
49343;PMS5003;35210;41.606;-87.602;2023-07-20T01:34:05;6.80;5.40;4.40
49343;PMS5003;35210;41.606;-87.602;2023-07-20T01:36:35;8.00;8.00;4.00
49343;PMS5003;35210;41.606;-87.602;2023-07-20T01:39:05;5.20;5.20;4.00
49343;PMS5003;35210;41.606;-87.602;2023-07-20T01:41:35;5.00;4.40;3.00
49343;PMS5003;35210;41.606;-87.602;2023-07-20T01:44:04;6.00;6.00;4.60
49343;PMS5003;35210;41.606;-87.602;2023-07-20T01:46:32;7.60;7.00;4.00
49343;PMS5003;35210;41.606;-87.602;2023-07-20T01:49:02;6.20;5.80;3.20
49343;PMS5003;35210;41.606;-87.602;2023-07-20T01:51:31;7.60;6.40;3.20
49343;PMS5003;35210;41.606;-87.602;2023-07-20T01:53:59;5.20;5.20;4.00
49343;PMS5003;35210;41.606;-87.602;2023-07-20T01:56:27;6.40;6.20;4.20
49343;PMS5003;35210;41.606;-87.602;2023-07-20T01:58:55;5.00;5.00;3.20
49343;PMS5003;35210;41.606;-87.602;2023-07-20T02:01:23;4.80;4.80;3.00
49343;PMS5003;35210;41.606;-87.602;2023-07-20T02:03:55;8.20;8.20;5.20
49343;PMS5003;35210;41.606;-87.602;2023-07-20T02:06:24;4.80;4.80;3.80
49343;PMS5003;35210;41.606;-87.602;2023-07-20T02:08:52;6.60;6.60;5.00
49343;PMS5003;35210;41.606;-87.602;2023-07-20T02:11:20;10.60;9.60;6.00
49343;PMS5003;35210;41.606;-87.602;2023-07-20T02:13:49;8.00;7.40;4.60
49343;PMS5003;35210;41.606;-87.602;2023-07-20T02:16:17;7.00;6.00;3.40
49343;PMS5003;35210;41.606;-87.602;2023-07-20T02:18:45;6.40;5.40;4.00
49343;PMS5003;35210;41.606;-87.602;2023-07-20T02:21:15;6.00;6.00;3.40
49343;PMS5003;35210;41.606;-87.602;2023-07-20T02:23:43;7.00;7.00;4.80
49343;PMS5003;35210;41.606;-87.602;2023-07-20T02:26:11;8.00;8.00;5.00
49343;PMS5003;35210;41.606;-87.602;2023-07-20T02:28:39;6.80;6.80;4.40
49343;PMS5003;35210;41.606;-87.602;2023-07-20T02:31:08;8.20;7.00;5.20
49343;PMS5003;35210;41.606;-87.602;2023-07-20T02:33:36;5.60;5.60;3.40
49343;PMS5003;35210;41.606;-87.602;2023-07-20T02:36:05;6.00;5.00;3.60
49343;PMS5003;35210;41.606;-87.602;2023-07-20T02:38:35;5.80;4.20;2.60
49343;PMS5003;35210;41.606;-87.602;2023-07-20T02:41:03;7.60;5.00;3.20
49343;PMS5003;35210;41.606;-87.602;2023-07-20T02:43:32;6.80;5.00;3.00
49343;PMS5003;35210;41.606;-87.602;2023-07-20T02:46:00;5.00;4.40;3.00
49343;PMS5003;35210;41.606;-87.602;2023-07-20T02:48:28;5.80;5.00;3.00
49343;PMS5003;35210;41.606;-87.602;2023-07-20T02:50:56;5.00;4.00;2.80
49343;PMS5003;35210;41.606;-87.602;2023-07-20T02:53:24;6.40;5.40;2.60
49343;PMS5003;35210;41.606;-87.602;2023-07-20T02:55:56;7.60;6.60;5.00
49343;PMS5003;35210;41.606;-87.602;2023-07-20T02:58:24;5.60;5.60;4.00
49343;PMS5003;35210;41.606;-87.602;2023-07-20T03:00:52;5.60;4.40;3.60
49343;PMS5003;35210;41.606;-87.602;2023-07-20T03:03:21;4.60;4.40;2.40
49343;PMS5003;35210;41.606;-87.602;2023-07-20T03:05:49;6.00;5.00;3.00
49343;PMS5003;35210;41.606;-87.602;2023-07-20T03:08:20;6.80;5.00;3.00
49343;PMS5003;35210;41.606;-87.602;2023-07-20T03:10:48;7.00;4.20;3.20
49343;PMS5003;35210;41.606;-87.602;2023-07-20T03:13:18;7.00;6.20;4.40
49343;PMS5003;35210;41.606;-87.602;2023-07-20T03:15:47;7.20;6.80;4.60
49343;PMS5003;35210;41.606;-87.602;2023-07-20T03:18:15;8.40;6.80;5.00
49343;PMS5003;35210;41.606;-87.602;2023-07-20T03:20:44;5.00;5.00;3.20
49343;PMS5003;35210;41.606;-87.602;2023-07-20T03:23:14;6.80;6.80;5.00
49343;PMS5003;35210;41.606;-87.602;2023-07-20T03:25:42;8.00;6.20;4.00
49343;PMS5003;35210;41.606;-87.602;2023-07-20T03:28:10;7.80;6.40;4.00
49343;PMS5003;35210;41.606;-87.602;2023-07-20T03:30:40;3.00;3.00;1.80
49343;PMS5003;35210;41.606;-87.602;2023-07-20T03:33:08;3.20;3.20;2.40
49343;PMS5003;35210;41.606;-87.602;2023-07-20T03:35:36;5.20;5.00;3.20
49343;PMS5003;35210;41.606;-87.602;2023-07-20T03:38:04;5.60;5.20;4.80
49343;PMS5003;35210;41.606;-87.602;2023-07-20T03:40:32;6.80;5.00;3.80
49343;PMS5003;35210;41.606;-87.602;2023-07-20T03:43:01;6.80;5.40;4.00
49343;PMS5003;35210;41.606;-87.602;2023-07-20T03:45:29;6.00;5.60;3.80
49343;PMS5003;35210;41.606;-87.602;2023-07-20T03:47:59;5.80;5.20;4.20
49343;PMS5003;35210;41.606;-87.602;2023-07-20T03:50:28;8.00;8.00;5.00
49343;PMS5003;35210;41.606;-87.602;2023-07-20T03:52:56;7.00;6.60;5.40
49343;PMS5003;35210;41.606;-87.602;2023-07-20T03:55:24;7.40;6.60;4.20
49343;PMS5003;35210;41.606;-87.602;2023-07-20T03:57:53;6.40;6.00;4.00
49343;PMS5003;35210;41.606;-87.602;2023-07-20T04:00:24;6.40;6.40;4.80
49343;PMS5003;35210;41.606;-87.602;2023-07-20T04:02:52;5.20;5.20;3.40
49343;PMS5003;35210;41.606;-87.602;2023-07-20T04:05:22;14.80;9.40;6.00
49343;PMS5003;35210;41.606;-87.602;2023-07-20T04:07:51;6.00;6.00;5.00
49343;PMS5003;35210;41.606;-87.602;2023-07-20T04:10:19;9.40;8.20;5.20
49343;PMS5003;35210;41.606;-87.602;2023-07-20T04:12:47;9.20;6.00;3.80
49343;PMS5003;35210;41.606;-87.602;2023-07-20T04:15:16;8.80;8.00;6.20
49343;PMS5003;35210;41.606;-87.602;2023-07-20T04:17:44;10.20;7.40;4.40
49343;PMS5003;35210;41.606;-87.602;2023-07-20T04:20:12;8.60;7.40;5.00
49343;PMS5003;35210;41.606;-87.602;2023-07-20T04:22:42;9.00;7.60;5.00
49343;PMS5003;35210;41.606;-87.602;2023-07-20T04:25:10;9.40;8.80;6.40
49343;PMS5003;35210;41.606;-87.602;2023-07-20T04:27:38;10.80;8.20;4.80
49343;PMS5003;35210;41.606;-87.602;2023-07-20T04:30:07;6.80;5.80;4.00
49343;PMS5003;35210;41.606;-87.602;2023-07-20T04:32:37;9.20;8.00;5.60
49343;PMS5003;35210;41.606;-87.602;2023-07-20T04:35:09;8.00;7.00;5.20
49343;PMS5003;35210;41.606;-87.602;2023-07-20T04:37:38;8.20;8.20;6.00
49343;PMS5003;35210;41.606;-87.602;2023-07-20T04:40:12;8.00;8.00;5.00
49343;PMS5003;35210;41.606;-87.602;2023-07-20T04:42:43;7.00;6.60;5.00
49343;PMS5003;35210;41.606;-87.602;2023-07-20T04:45:11;7.80;7.80;6.00
49343;PMS5003;35210;41.606;-87.602;2023-07-20T04:47:39;9.40;8.60;6.20
49343;PMS5003;35210;41.606;-87.602;2023-07-20T04:50:07;9.00;7.80;5.80
49343;PMS5003;35210;41.606;-87.602;2023-07-20T04:52:36;9.60;9.60;6.00
49343;PMS5003;35210;41.606;-87.602;2023-07-20T04:55:04;6.00;6.00;3.80
49343;PMS5003;35210;41.606;-87.602;2023-07-20T04:57:34;9.60;8.20;5.60
49343;PMS5003;35210;41.606;-87.602;2023-07-20T05:00:02;8.20;8.20;5.00
49343;PMS5003;35210;41.606;-87.602;2023-07-20T05:02:31;9.60;8.80;6.00
49343;PMS5003;35210;41.606;-87.602;2023-07-20T05:04:59;9.20;7.80;5.00
49343;PMS5003;35210;41.606;-87.602;2023-07-20T05:07:28;9.40;7.20;4.20
49343;PMS5003;35210;41.606;-87.602;2023-07-20T05:09:56;10.00;7.60;6.00
49343;PMS5003;35210;41.606;-87.602;2023-07-20T05:12:26;8.80;8.80;4.60
49343;PMS5003;35210;41.606;-87.602;2023-07-20T05:14:55;10.20;7.80;5.00
49343;PMS5003;35210;41.606;-87.602;2023-07-20T05:17:23;8.40;8.40;5.80
49343;PMS5003;35210;41.606;-87.602;2023-07-20T05:19:51;9.40;8.20;6.20
49343;PMS5003;35210;41.606;-87.602;2023-07-20T05:22:19;11.00;9.40;6.00
49343;PMS5003;35210;41.606;-87.602;2023-07-20T05:24:48;10.40;8.60;6.60
49343;PMS5003;35210;41.606;-87.602;2023-07-20T05:27:16;9.60;9.60;5.80
49343;PMS5003;35210;41.606;-87.602;2023-07-20T05:29:45;9.20;8.00;4.60
49343;PMS5003;35210;41.606;-87.602;2023-07-20T05:32:15;10.20;8.40;6.00
49343;PMS5003;35210;41.606;-87.602;2023-07-20T05:34:43;8.20;7.80;6.00
49343;PMS5003;35210;41.606;-87.602;2023-07-20T05:37:11;9.00;9.00;6.60
49343;PMS5003;35210;41.606;-87.602;2023-07-20T05:39:39;6.40;6.40;5.00
49343;PMS5003;35210;41.606;-87.602;2023-07-20T05:42:07;9.20;9.20;7.00
49343;PMS5003;35210;41.606;-87.602;2023-07-20T05:44:35;9.00;5.60;4.20
49343;PMS5003;35210;41.606;-87.602;2023-07-20T05:47:04;10.00;9.00;6.60
49343;PMS5003;35210;41.606;-87.602;2023-07-20T05:49:34;10.00;10.00;7.00
49343;PMS5003;35210;41.606;-87.602;2023-07-20T05:52:02;11.60;7.60;5.20
49343;PMS5003;35210;41.606;-87.602;2023-07-20T05:54:30;8.60;8.60;5.20
49343;PMS5003;35210;41.606;-87.602;2023-07-20T05:57:04;9.00;8.00;5.40
49343;PMS5003;35210;41.606;-87.602;2023-07-20T05:59:33;8.00;8.00;5.00
49343;PMS5003;35210;41.606;-87.602;2023-07-20T06:02:01;9.60;9.60;7.00
49343;PMS5003;35210;41.606;-87.602;2023-07-20T06:04:30;10.60;7.40;6.40
49343;PMS5003;35210;41.606;-87.602;2023-07-20T06:06:59;5.00;5.00;3.00
49343;PMS5003;35210;41.606;-87.602;2023-07-20T06:09:27;9.40;9.00;6.20
49343;PMS5003;35210;41.606;-87.602;2023-07-20T06:11:56;10.40;9.00;6.60
49343;PMS5003;35210;41.606;-87.602;2023-07-20T06:14:24;9.40;7.40;4.80
49343;PMS5003;35210;41.606;-87.602;2023-07-20T06:16:52;11.80;11.00;7.00
49343;PMS5003;35210;41.606;-87.602;2023-07-20T06:19:20;6.20;6.20;4.00
49343;PMS5003;35210;41.606;-87.602;2023-07-20T06:21:49;8.40;7.60;5.00
49343;PMS5003;35210;41.606;-87.602;2023-07-20T06:24:19;9.60;9.00;5.40
49343;PMS5003;35210;41.606;-87.602;2023-07-20T06:26:47;11.20;11.20;6.00
49343;PMS5003;35210;41.606;-87.602;2023-07-20T06:29:15;9.80;9.80;6.00
49343;PMS5003;35210;41.606;-87.602;2023-07-20T06:31:44;7.00;6.60;4.60
49343;PMS5003;35210;41.606;-87.602;2023-07-20T06:34:12;10.00;9.80;6.00
49343;PMS5003;35210;41.606;-87.602;2023-07-20T06:36:40;7.60;6.40;4.60
49343;PMS5003;35210;41.606;-87.602;2023-07-20T06:39:09;8.20;6.40;4.20
49343;PMS5003;35210;41.606;-87.602;2023-07-20T06:41:38;8.80;7.60;4.60
49343;PMS5003;35210;41.606;-87.602;2023-07-20T06:44:07;9.20;9.00;6.20
49343;PMS5003;35210;41.606;-87.602;2023-07-20T06:46:36;9.60;9.60;5.60
49343;PMS5003;35210;41.606;-87.602;2023-07-20T06:49:05;10.00;8.40;5.00
49343;PMS5003;35210;41.606;-87.602;2023-07-20T06:51:34;10.00;8.20;5.00
49343;PMS5003;35210;41.606;-87.602;2023-07-20T06:54:02;10.60;8.80;5.00
49343;PMS5003;35210;41.606;-87.602;2023-07-20T06:56:31;10.60;8.40;5.40
49343;PMS5003;35210;41.606;-87.602;2023-07-20T06:59:01;10.60;9.20;5.20
49343;PMS5003;35210;41.606;-87.602;2023-07-20T07:01:29;10.40;9.60;6.60
49343;PMS5003;35210;41.606;-87.602;2023-07-20T07:03:57;11.20;8.80;5.60
49343;PMS5003;35210;41.606;-87.602;2023-07-20T07:06:25;12.00;10.80;7.60
49343;PMS5003;35210;41.606;-87.602;2023-07-20T07:08:54;10.00;8.00;5.00
49343;PMS5003;35210;41.606;-87.602;2023-07-20T07:11:22;9.60;8.40;6.00
49343;PMS5003;35210;41.606;-87.602;2023-07-20T07:13:50;10.20;8.80;5.80
49343;PMS5003;35210;41.606;-87.602;2023-07-20T07:16:20;12.20;10.80;6.00
49343;PMS5003;35210;41.606;-87.602;2023-07-20T07:18:49;10.60;9.40;6.00
49343;PMS5003;35210;41.606;-87.602;2023-07-20T07:21:18;8.20;7.00;4.80
49343;PMS5003;35210;41.606;-87.602;2023-07-20T07:23:46;9.60;9.60;5.80
49343;PMS5003;35210;41.606;-87.602;2023-07-20T07:26:15;12.80;10.20;6.20
49343;PMS5003;35210;41.606;-87.602;2023-07-20T07:28:43;10.20;10.00;5.80
49343;PMS5003;35210;41.606;-87.602;2023-07-20T07:31:11;11.00;9.40;5.40
49343;PMS5003;35210;41.606;-87.602;2023-07-20T07:33:40;11.60;9.80;6.40
49343;PMS5003;35210;41.606;-87.602;2023-07-20T07:36:08;8.80;8.00;5.00
49343;PMS5003;35210;41.606;-87.602;2023-07-20T07:38:36;15.40;10.00;6.00
49343;PMS5003;35210;41.606;-87.602;2023-07-20T07:41:05;11.60;10.80;6.20
49343;PMS5003;35210;41.606;-87.602;2023-07-20T07:43:33;10.40;8.20;4.00
49343;PMS5003;35210;41.606;-87.602;2023-07-20T07:46:01;9.40;8.80;5.60
49343;PMS5003;35210;41.606;-87.602;2023-07-20T07:48:29;8.00;7.60;4.40
49343;PMS5003;35210;41.606;-87.602;2023-07-20T07:50:59;7.20;7.20;5.20
49343;PMS5003;35210;41.606;-87.602;2023-07-20T07:53:27;9.80;9.80;6.00
49343;PMS5003;35210;41.606;-87.602;2023-07-20T07:55:55;10.80;7.80;4.40
49343;PMS5003;35210;41.606;-87.602;2023-07-20T07:58:23;12.60;8.60;5.60
49343;PMS5003;35210;41.606;-87.602;2023-07-20T08:00:51;10.40;10.40;5.60
49343;PMS5003;35210;41.606;-87.602;2023-07-20T08:03:19;13.60;10.00;5.60
49343;PMS5003;35210;41.606;-87.602;2023-07-20T08:05:49;9.60;9.60;4.40
49343;PMS5003;35210;41.606;-87.602;2023-07-20T08:08:19;10.40;9.00;5.00
49343;PMS5003;35210;41.606;-87.602;2023-07-20T08:10:47;9.60;8.40;4.40
49343;PMS5003;35210;41.606;-87.602;2023-07-20T08:13:15;10.40;9.60;5.00
49343;PMS5003;35210;41.606;-87.602;2023-07-20T08:15:45;13.80;10.60;6.40
49343;PMS5003;35210;41.606;-87.602;2023-07-20T08:18:16;10.60;10.40;6.60
49343;PMS5003;35210;41.606;-87.602;2023-07-20T08:20:44;11.40;10.40;5.60
49343;PMS5003;35210;41.606;-87.602;2023-07-20T08:23:12;12.20;9.20;5.20
49343;PMS5003;35210;41.606;-87.602;2023-07-20T08:25:42;8.80;8.20;5.40
49343;PMS5003;35210;41.606;-87.602;2023-07-20T08:28:10;8.80;8.00;4.00
49343;PMS5003;35210;41.606;-87.602;2023-07-20T08:30:42;9.00;8.00;5.00
49343;PMS5003;35210;41.606;-87.602;2023-07-20T08:33:12;10.40;8.20;3.20
49343;PMS5003;35210;41.606;-87.602;2023-07-20T08:35:40;10.80;9.00;4.00
49343;PMS5003;35210;41.606;-87.602;2023-07-20T08:38:10;8.80;7.80;4.00
49343;PMS5003;35210;41.606;-87.602;2023-07-20T08:40:43;18.00;12.00;5.00
49343;PMS5003;35210;41.606;-87.602;2023-07-20T08:43:12;9.00;9.00;5.60
49343;PMS5003;35210;41.606;-87.602;2023-07-20T08:45:42;13.40;11.60;7.20
49343;PMS5003;35210;41.606;-87.602;2023-07-20T08:48:12;10.00;10.00;6.00
49343;PMS5003;35210;41.606;-87.602;2023-07-20T08:50:42;13.40;10.80;4.00
49343;PMS5003;35210;41.606;-87.602;2023-07-20T08:53:11;10.00;10.00;5.40
49343;PMS5003;35210;41.606;-87.602;2023-07-20T08:55:40;13.80;12.00;6.60
49343;PMS5003;35210;41.606;-87.602;2023-07-20T08:58:12;15.20;11.40;5.80
49343;PMS5003;35210;41.606;-87.602;2023-07-20T09:00:42;10.60;10.60;6.00
49343;PMS5003;35210;41.606;-87.602;2023-07-20T09:03:10;13.80;12.60;6.60
49343;PMS5003;35210;41.606;-87.602;2023-07-20T09:05:38;8.40;8.40;4.20
49343;PMS5003;35210;41.606;-87.602;2023-07-20T09:08:07;13.00;13.00;7.60
49343;PMS5003;35210;41.606;-87.602;2023-07-20T09:10:35;13.00;12.00;7.80
49343;PMS5003;35210;41.606;-87.602;2023-07-20T09:13:04;15.40;12.60;7.20
49343;PMS5003;35210;41.606;-87.602;2023-07-20T09:15:33;16.20;14.40;7.20
49343;PMS5003;35210;41.606;-87.602;2023-07-20T09:18:01;11.20;11.20;8.00
49343;PMS5003;35210;41.606;-87.602;2023-07-20T09:20:31;17.20;14.00;9.00
49343;PMS5003;35210;41.606;-87.602;2023-07-20T09:23:00;15.00;12.00;7.80
49343;PMS5003;35210;41.606;-87.602;2023-07-20T09:25:32;10.80;9.00;5.00
49343;PMS5003;35210;41.606;-87.602;2023-07-20T09:28:02;13.20;10.80;6.00
49343;PMS5003;35210;41.606;-87.602;2023-07-20T09:30:32;9.60;9.60;5.80
49343;PMS5003;35210;41.606;-87.602;2023-07-20T09:33:00;13.60;12.80;7.00
49343;PMS5003;35210;41.606;-87.602;2023-07-20T09:35:28;17.20;12.40;8.20
49343;PMS5003;35210;41.606;-87.602;2023-07-20T09:37:57;13.60;12.40;7.60
49343;PMS5003;35210;41.606;-87.602;2023-07-20T09:40:26;13.60;12.80;6.20
49343;PMS5003;35210;41.606;-87.602;2023-07-20T09:42:55;16.80;14.20;9.00
49343;PMS5003;35210;41.606;-87.602;2023-07-20T09:45:30;12.00;9.20;3.40
49343;PMS5003;35210;41.606;-87.602;2023-07-20T09:48:04;14.20;13.40;8.80
49343;PMS5003;35210;41.606;-87.602;2023-07-20T09:50:33;15.00;15.00;9.00
49343;PMS5003;35210;41.606;-87.602;2023-07-20T09:53:01;11.40;11.40;8.00
49343;PMS5003;35210;41.606;-87.602;2023-07-20T09:55:30;18.60;16.60;9.60
49343;PMS5003;35210;41.606;-87.602;2023-07-20T09:57:58;14.40;13.40;6.60
49343;PMS5003;35210;41.606;-87.602;2023-07-20T10:00:27;17.00;16.00;9.60
49343;PMS5003;35210;41.606;-87.602;2023-07-20T10:02:57;16.80;16.00;10.00
49343;PMS5003;35210;41.606;-87.602;2023-07-20T10:05:29;19.80;17.60;9.60
49343;PMS5003;35210;41.606;-87.602;2023-07-20T10:08:01;17.40;15.20;8.80
49343;PMS5003;35210;41.606;-87.602;2023-07-20T10:10:33;20.00;17.80;10.40
49343;PMS5003;35210;41.606;-87.602;2023-07-20T10:13:03;18.40;17.80;11.60
49343;PMS5003;35210;41.606;-87.602;2023-07-20T10:15:35;20.20;16.60;11.00
49343;PMS5003;35210;41.606;-87.602;2023-07-20T10:18:09;19.60;19.00;12.60
49343;PMS5003;35210;41.606;-87.602;2023-07-20T10:20:46;21.20;18.00;12.40
49343;PMS5003;35210;41.606;-87.602;2023-07-20T10:23:16;22.20;21.20;12.80
49343;PMS5003;35210;41.606;-87.602;2023-07-20T10:25:45;17.60;14.20;9.20
49343;PMS5003;35210;41.606;-87.602;2023-07-20T10:28:14;21.00;18.40;10.60
49343;PMS5003;35210;41.606;-87.602;2023-07-20T10:30:42;22.20;20.80;12.60
49343;PMS5003;35210;41.606;-87.602;2023-07-20T10:33:13;19.60;17.00;9.60
49343;PMS5003;35210;41.606;-87.602;2023-07-20T10:38:38;23.20;23.20;15.00
49343;PMS5003;35210;41.606;-87.602;2023-07-20T10:41:17;23.80;20.00;11.40
49343;PMS5003;35210;41.606;-87.602;2023-07-20T10:43:47;24.00;18.00;12.80
49343;PMS5003;35210;41.606;-87.602;2023-07-20T10:46:33;23.40;21.00;13.00
49343;PMS5003;35210;41.606;-87.602;2023-07-20T10:49:04;17.40;17.40;11.80
49343;PMS5003;35210;41.606;-87.602;2023-07-20T10:51:38;24.40;22.00;14.00
49343;PMS5003;35210;41.606;-87.602;2023-07-20T10:54:08;22.40;22.40;13.60
49343;PMS5003;35210;41.606;-87.602;2023-07-20T10:57:16;25.00;24.80;15.00
49343;PMS5003;35210;41.606;-87.602;2023-07-20T10:59:51;19.00;18.40;10.40
49343;PMS5003;35210;41.606;-87.602;2023-07-20T11:02:41;22.20;21.00;12.60
49343;PMS5003;35210;41.606;-87.602;2023-07-20T11:08:06;22.00;22.00;13.00
49343;PMS5003;35210;41.606;-87.602;2023-07-20T11:10:37;25.00;24.40;16.00
49343;PMS5003;35210;41.606;-87.602;2023-07-20T11:13:16;26.40;24.80;15.40
49343;PMS5003;35210;41.606;-87.602;2023-07-20T11:16:00;26.00;22.40;14.00
49343;PMS5003;35210;41.606;-87.602;2023-07-20T11:18:33;25.60;25.00;16.00
49343;PMS5003;35210;41.606;-87.602;2023-07-20T11:21:08;28.00;24.20;14.80
49343;PMS5003;35210;41.606;-87.602;2023-07-20T11:23:38;28.80;26.40;17.00
49343;PMS5003;35210;41.606;-87.602;2023-07-20T11:26:07;27.00;23.80;15.20
49343;PMS5003;35210;41.606;-87.602;2023-07-20T11:28:36;29.60;28.60;19.00
49343;PMS5003;35210;41.606;-87.602;2023-07-20T11:31:04;30.40;29.00;18.60
49343;PMS5003;35210;41.606;-87.602;2023-07-20T11:33:32;28.40;25.80;15.40
49343;PMS5003;35210;41.606;-87.602;2023-07-20T11:36:01;27.80;27.00;17.00
49343;PMS5003;35210;41.606;-87.602;2023-07-20T11:38:30;29.00;27.20;17.00
49343;PMS5003;35210;41.606;-87.602;2023-07-20T11:40:59;30.80;30.20;17.00
49343;PMS5003;35210;41.606;-87.602;2023-07-20T11:43:27;33.60;30.00;19.60
49343;PMS5003;35210;41.606;-87.602;2023-07-20T11:45:55;30.20;27.80;18.80
49343;PMS5003;35210;41.606;-87.602;2023-07-20T11:48:24;29.20;27.60;17.60
49343;PMS5003;35210;41.606;-87.602;2023-07-20T11:50:52;34.80;31.20;20.00
49343;PMS5003;35210;41.606;-87.602;2023-07-20T11:53:20;34.00;28.80;17.20
49343;PMS5003;35210;41.606;-87.602;2023-07-20T11:55:50;32.80;30.60;19.60
49343;PMS5003;35210;41.606;-87.602;2023-07-20T11:58:19;36.60;33.40;19.20
49343;PMS5003;35210;41.606;-87.602;2023-07-20T12:00:48;29.40;27.00;16.20
49343;PMS5003;35210;41.606;-87.602;2023-07-20T12:03:16;30.40;26.60;16.00
49343;PMS5003;35210;41.606;-87.602;2023-07-20T12:05:45;35.20;32.60;20.00
49343;PMS5003;35210;41.606;-87.602;2023-07-20T12:08:16;38.80;34.60;21.60
49343;PMS5003;35210;41.606;-87.602;2023-07-20T12:10:44;30.00;27.20;19.00
49343;PMS5003;35210;41.606;-87.602;2023-07-20T12:13:14;38.80;34.80;22.00
49343;PMS5003;35210;41.606;-87.602;2023-07-20T12:15:42;32.40;30.00;18.60
49343;PMS5003;35210;41.606;-87.602;2023-07-20T12:18:11;33.60;28.80;12.40
49343;PMS5003;35210;41.606;-87.602;2023-07-20T12:20:39;37.00;33.75;21.00
49343;PMS5003;35210;41.606;-87.602;2023-07-20T12:23:08;42.60;35.60;21.80
49343;PMS5003;35210;41.606;-87.602;2023-07-20T12:25:37;37.25;33.00;21.00
49343;PMS5003;35210;41.606;-87.602;2023-07-20T12:28:07;38.00;32.20;20.80
49343;PMS5003;35210;41.606;-87.602;2023-07-20T12:30:38;36.20;31.40;21.00
49343;PMS5003;35210;41.606;-87.602;2023-07-20T12:33:06;37.50;33.00;22.00
49343;PMS5003;35210;41.606;-87.602;2023-07-20T12:35:34;40.50;35.25;23.00
49343;PMS5003;35210;41.606;-87.602;2023-07-20T12:38:03;50.50;39.25;22.50
49343;PMS5003;35210;41.606;-87.602;2023-07-20T12:40:31;42.50;35.50;23.00
49343;PMS5003;35210;41.606;-87.602;2023-07-20T12:42:59;41.00;35.50;23.00
49343;PMS5003;35210;41.606;-87.602;2023-07-20T12:45:27;44.00;37.25;22.25
49343;PMS5003;35210;41.606;-87.602;2023-07-20T12:47:57;42.00;34.50;23.00
49343;PMS5003;35210;41.606;-87.602;2023-07-20T12:50:26;37.50;34.75;20.25
49343;PMS5003;35210;41.606;-87.602;2023-07-20T12:52:55;42.50;34.00;21.50
49343;PMS5003;35210;41.606;-87.602;2023-07-20T12:55:23;36.50;32.50;21.00
49343;PMS5003;35210;41.606;-87.602;2023-07-20T12:57:52;41.60;35.80;21.00
49343;PMS5003;35210;41.606;-87.602;2023-07-20T13:00:20;34.50;31.75;20.00
49343;PMS5003;35210;41.606;-87.602;2023-07-20T13:02:49;36.00;31.80;20.40
49343;PMS5003;35210;41.606;-87.602;2023-07-20T13:05:19;36.40;31.60;18.60
49343;PMS5003;35210;41.606;-87.602;2023-07-20T13:07:47;41.00;33.00;20.00
49343;PMS5003;35210;41.606;-87.602;2023-07-20T13:10:15;35.80;32.00;19.60
49343;PMS5003;35210;41.606;-87.602;2023-07-20T13:12:43;35.20;31.20;18.40
49343;PMS5003;35210;41.606;-87.602;2023-07-20T13:15:11;34.00;31.80;21.20
49343;PMS5003;35210;41.606;-87.602;2023-07-20T13:17:40;28.00;28.00;18.60
49343;PMS5003;35210;41.606;-87.602;2023-07-20T13:20:08;39.60;32.20;20.40
49343;PMS5003;35210;41.606;-87.602;2023-07-20T13:22:39;33.20;30.20;17.00
49343;PMS5003;35210;41.606;-87.602;2023-07-20T13:25:08;34.80;33.60;21.40
49343;PMS5003;35210;41.606;-87.602;2023-07-20T13:27:36;32.75;31.75;20.00
49343;PMS5003;35210;41.606;-87.602;2023-07-20T13:30:05;32.60;30.80;17.80
49343;PMS5003;35210;41.606;-87.602;2023-07-20T13:32:35;35.20;31.00;19.20
49343;PMS5003;35210;41.606;-87.602;2023-07-20T13:35:06;38.40;32.80;20.40
49343;PMS5003;35210;41.606;-87.602;2023-07-20T13:37:39;33.40;30.60;19.60
49343;PMS5003;35210;41.606;-87.602;2023-07-20T13:40:08;30.60;29.60;18.80
49343;PMS5003;35210;41.606;-87.602;2023-07-20T13:42:38;30.00;28.20;17.20
49343;PMS5003;35210;41.606;-87.602;2023-07-20T13:45:07;29.60;24.40;15.20
49343;PMS5003;35210;41.606;-87.602;2023-07-20T13:47:37;37.75;33.50;20.75
49343;PMS5003;35210;41.606;-87.602;2023-07-20T13:50:06;26.20;23.40;17.80
49343;PMS5003;35210;41.606;-87.602;2023-07-20T13:52:34;35.50;32.25;20.25
49343;PMS5003;35210;41.606;-87.602;2023-07-20T13:55:04;34.50;30.50;19.75
49343;PMS5003;35210;41.606;-87.602;2023-07-20T13:57:34;38.00;33.40;21.40
49343;PMS5003;35210;41.606;-87.602;2023-07-20T14:00:03;30.80;27.40;19.00
49343;PMS5003;35210;41.606;-87.602;2023-07-20T14:02:40;27.20;27.20;20.00